createdAt,value
2019-05-26T00:01:06.303Z,5.87
2019-05-26T00:03:36.750Z,8.33
2019-05-26T00:06:07.459Z,8.10
2019-05-26T00:08:38.006Z,11.18
2019-05-26T00:11:10.320Z,6.90
2019-05-26T00:13:40.689Z,7.28
2019-05-26T00:16:11.149Z,10.70
2019-05-26T00:18:41.522Z,8.53
2019-05-26T00:21:11.995Z,8.08
2019-05-26T00:23:44.614Z,7.53
2019-05-26T00:26:17.328Z,9.78
2019-05-26T00:28:48.881Z,7.60
2019-05-26T00:31:19.492Z,5.92
2019-05-26T00:33:50.048Z,5.15
2019-05-26T00:36:23.370Z,7.03
2019-05-26T00:38:53.998Z,5.75
2019-05-26T00:41:24.435Z,6.67
2019-05-26T00:43:54.931Z,6.35
2019-05-26T00:46:25.849Z,7.42
2019-05-26T00:48:56.200Z,7.67
2019-05-26T00:51:26.648Z,7.40
2019-05-26T00:53:58.418Z,7.53
2019-05-26T00:56:30.271Z,6.42
2019-05-26T00:59:01.907Z,7.83
2019-05-26T01:01:32.452Z,7.53
2019-05-26T01:04:04.219Z,9.80
2019-05-26T01:06:34.719Z,7.35
2019-05-26T01:09:07.558Z,8.53
2019-05-26T01:11:37.941Z,7.72
2019-05-26T01:14:09.475Z,5.53
2019-05-26T01:16:40.110Z,7.62
2019-05-26T01:19:12.920Z,6.30
2019-05-26T01:21:43.299Z,6.35
2019-05-26T01:24:13.803Z,8.10
2019-05-26T01:26:44.241Z,9.20
2019-05-26T01:29:16.079Z,8.63
2019-05-26T01:31:46.502Z,8.38
2019-05-26T01:34:18.032Z,10.60
2019-05-26T01:36:53.194Z,8.28
2019-05-26T01:39:24.824Z,8.70
2019-05-26T01:41:55.370Z,7.00
2019-05-26T01:44:25.958Z,8.80
2019-05-26T01:46:56.287Z,6.33
2019-05-26T01:49:27.568Z,7.80
2019-05-26T01:51:58.183Z,6.50
2019-05-26T01:54:28.635Z,6.67
2019-05-26T01:56:59.131Z,5.22
2019-05-26T01:59:30.719Z,8.80
2019-05-26T02:02:01.139Z,6.47
2019-05-26T02:04:31.598Z,7.58
2019-05-26T02:07:02.070Z,6.55
2019-05-26T02:09:32.444Z,8.93
2019-05-26T02:12:02.885Z,5.80
2019-05-26T02:14:33.163Z,6.33
2019-05-26T02:17:03.689Z,8.13
2019-05-26T02:19:35.247Z,5.67
2019-05-26T02:22:05.854Z,8.78
2019-05-26T02:24:37.276Z,6.30
2019-05-26T02:27:10.190Z,5.67
2019-05-26T02:29:40.523Z,6.45
2019-05-26T02:32:12.599Z,6.47
2019-05-26T02:34:43.185Z,7.45
2019-05-26T02:37:13.646Z,6.25
2019-05-26T02:39:44.477Z,8.13
2019-05-26T02:42:15.044Z,7.37
2019-05-26T02:44:45.411Z,6.17
2019-05-26T02:47:15.811Z,6.35
2019-05-26T02:49:47.359Z,7.20
2019-05-26T02:52:17.710Z,7.33
2019-05-26T02:54:48.422Z,6.85
2019-05-26T02:57:18.880Z,6.55
2019-05-26T02:59:49.367Z,7.25
2019-05-26T03:02:19.794Z,6.12
2019-05-26T03:04:50.581Z,5.62
2019-05-26T03:07:23.437Z,7.00
2019-05-26T03:09:55.603Z,6.22
2019-05-26T03:12:27.611Z,6.92
2019-05-26T03:14:59.180Z,8.08
2019-05-26T03:17:34.082Z,5.17
2019-05-26T03:20:05.825Z,9.53
2019-05-26T03:22:39.315Z,6.35
2019-05-26T03:25:09.905Z,6.97
2019-05-26T03:27:40.306Z,5.65
2019-05-26T03:30:16.613Z,6.05
2019-05-26T03:32:46.939Z,6.85
2019-05-26T03:35:17.315Z,12.80
2019-05-26T03:37:47.771Z,6.97
2019-05-26T03:40:18.343Z,5.47
2019-05-26T03:42:48.796Z,5.60
2019-05-26T03:45:25.347Z,7.28
2019-05-26T03:47:56.032Z,6.78
2019-05-26T03:50:27.366Z,7.10
2019-05-26T03:52:57.816Z,6.67
2019-05-26T03:55:30.033Z,5.20
2019-05-26T03:58:00.591Z,7.92
2019-05-26T04:00:31.122Z,9.00
2019-05-26T04:03:01.574Z,7.33
2019-05-26T04:05:31.960Z,9.58
2019-05-26T04:08:05.008Z,9.00
2019-05-26T04:10:34.379Z,10.88
2019-05-26T04:13:04.867Z,6.08
2019-05-26T04:15:35.473Z,7.15
2019-05-26T04:18:05.960Z,9.65
2019-05-26T04:20:36.712Z,6.08
2019-05-26T04:23:07.199Z,5.75
2019-05-26T04:25:37.591Z,6.35
2019-05-26T04:28:08.170Z,5.37
2019-05-26T04:30:41.998Z,8.18
2019-05-26T04:33:12.343Z,5.85
2019-05-26T04:35:42.731Z,7.33
2019-05-26T04:38:13.166Z,8.18
2019-05-26T04:40:43.494Z,10.78
2019-05-26T04:43:15.250Z,5.72
2019-05-26T04:45:46.384Z,5.85
2019-05-26T04:48:16.663Z,7.67
2019-05-26T04:50:49.611Z,7.95
2019-05-26T04:53:20.313Z,7.30
2019-05-26T04:55:52.513Z,7.85
2019-05-26T04:58:23.971Z,8.65
2019-05-26T05:00:54.277Z,6.90
2019-05-26T05:03:25.687Z,9.30
2019-05-26T05:05:56.074Z,10.80
2019-05-26T05:08:26.448Z,8.40
2019-05-26T05:10:56.701Z,9.10
2019-05-26T05:13:27.135Z,8.05
2019-05-26T05:15:57.613Z,8.15
2019-05-26T05:18:28.149Z,7.37
2019-05-26T05:20:58.992Z,7.58
2019-05-26T05:23:29.410Z,11.40
2019-05-26T05:25:59.824Z,6.40
2019-05-26T05:28:30.459Z,10.32
2019-05-26T05:31:00.749Z,11.05
2019-05-26T05:33:31.235Z,12.10
2019-05-26T05:36:01.678Z,11.22
2019-05-26T05:38:32.078Z,12.37
2019-05-26T05:41:02.472Z,9.28
2019-05-26T05:43:32.965Z,9.30
2019-05-26T05:46:03.328Z,10.68
2019-05-26T05:48:33.852Z,13.10
2019-05-26T05:51:04.347Z,9.28
2019-05-26T05:53:34.824Z,11.85
2019-05-26T05:56:06.729Z,9.05
2019-05-26T05:58:37.123Z,15.08
2019-05-26T06:01:07.607Z,11.68
2019-05-26T06:03:37.918Z,10.85
2019-05-26T06:06:08.370Z,13.72
2019-05-26T06:08:38.743Z,11.73
2019-05-26T06:11:16.379Z,14.75
2019-05-26T06:13:41.283Z,12.20
2019-05-26T06:16:11.670Z,12.65
2019-05-26T06:18:42.172Z,12.63
2019-05-26T06:21:12.535Z,17.23
2019-05-26T06:23:43.183Z,12.28
2019-05-26T06:26:13.651Z,14.65
2019-05-26T06:28:43.988Z,12.93
2019-05-26T06:31:14.584Z,14.85
2019-05-26T06:33:44.972Z,14.68
2019-05-26T06:36:15.914Z,18.37
2019-05-26T06:38:46.716Z,9.25
2019-05-26T06:41:32.436Z,12.63
2019-05-26T06:43:50.389Z,11.83
2019-05-26T06:46:20.858Z,12.30
2019-05-26T06:48:51.427Z,13.43
2019-05-26T06:51:21.931Z,10.00
2019-05-26T06:53:52.469Z,11.15
2019-05-26T06:56:22.984Z,11.12
2019-05-26T06:58:53.306Z,9.15
2019-05-26T07:01:23.906Z,12.78
2019-05-26T07:03:54.361Z,15.83
2019-05-26T07:06:24.643Z,11.43
2019-05-26T07:08:56.184Z,14.15
2019-05-26T07:11:30.807Z,13.28
2019-05-26T07:14:01.168Z,13.25
2019-05-26T07:16:38.248Z,12.98
2019-05-26T07:19:05.922Z,12.95
2019-05-26T07:21:36.351Z,11.25
2019-05-26T07:24:08.113Z,14.20
2019-05-26T07:26:38.497Z,10.35
2019-05-26T07:29:09.091Z,12.47
2019-05-26T07:31:39.519Z,15.72
2019-05-26T07:34:10.183Z,14.85
2019-05-26T07:36:40.583Z,12.50
2019-05-26T07:39:11.242Z,15.40
2019-05-26T07:41:41.792Z,12.80
2019-05-26T07:44:13.611Z,14.80
2019-05-26T07:46:45.863Z,14.95
2019-05-26T07:49:19.143Z,13.80
2019-05-26T07:51:49.634Z,15.88
2019-05-26T07:54:25.516Z,14.68
2019-05-26T07:56:52.578Z,14.98
2019-05-26T07:59:28.895Z,16.30
2019-05-26T08:01:59.336Z,17.37
2019-05-26T08:04:30.078Z,17.85
2019-05-26T08:07:00.728Z,14.78
2019-05-26T08:09:31.033Z,15.20
2019-05-26T08:12:02.438Z,13.08
2019-05-26T08:14:32.873Z,14.70
2019-05-26T08:17:03.331Z,17.67
2019-05-26T08:19:34.070Z,16.25
2019-05-26T08:22:04.721Z,16.17
2019-05-26T08:24:35.249Z,13.58
2019-05-26T08:27:06.865Z,12.88
2019-05-26T08:29:41.317Z,11.70
2019-05-26T08:32:14.535Z,15.25
2019-05-26T08:34:44.631Z,15.00
2019-05-26T08:37:14.941Z,14.50
2019-05-26T08:39:48.330Z,18.50
2019-05-26T08:42:26.781Z,15.38
2019-05-26T08:44:49.727Z,12.35
2019-05-26T08:47:20.315Z,14.73
2019-05-26T08:49:53.753Z,12.60
2019-05-26T08:52:24.215Z,12.15
2019-05-26T08:54:54.894Z,14.18
2019-05-26T08:57:25.428Z,13.15
2019-05-26T08:59:55.777Z,16.27
2019-05-26T09:02:26.263Z,14.87
2019-05-26T09:04:56.609Z,13.60
2019-05-26T09:07:26.950Z,13.95
2019-05-26T09:09:57.472Z,11.25
2019-05-26T09:12:28.090Z,16.70
2019-05-26T09:14:58.538Z,14.03
2019-05-26T09:17:30.244Z,13.38
2019-05-26T09:20:00.500Z,12.30
2019-05-26T09:22:31.166Z,13.35
2019-05-26T09:25:01.907Z,18.40
2019-05-26T09:27:32.498Z,13.05
2019-05-26T09:30:03.234Z,12.33
2019-05-26T09:32:33.630Z,13.75
2019-05-26T09:35:04.773Z,11.28
2019-05-26T09:37:35.644Z,11.63
2019-05-26T09:40:06.871Z,13.30
2019-05-26T09:42:37.295Z,13.93
2019-05-26T09:45:09.513Z,10.72
2019-05-26T09:47:40.432Z,11.03
2019-05-26T09:50:11.512Z,10.98
2019-05-26T09:52:42.004Z,10.60
2019-05-26T09:55:13.423Z,11.88
2019-05-26T09:57:43.869Z,9.50
2019-05-26T10:00:16.517Z,11.28
2019-05-26T10:02:47.180Z,11.12
2019-05-26T10:05:18.353Z,10.98
2019-05-26T10:07:49.950Z,10.35
2019-05-26T10:10:20.559Z,8.90
2019-05-26T10:12:51.040Z,8.45
2019-05-26T10:15:21.563Z,10.90
2019-05-26T10:17:52.346Z,7.58
2019-05-26T10:20:22.776Z,12.13
2019-05-26T10:22:53.330Z,10.48
2019-05-26T10:25:23.831Z,9.18
2019-05-26T10:27:54.298Z,10.13
2019-05-26T10:30:26.044Z,11.30
2019-05-26T10:32:57.948Z,10.10
2019-05-26T10:35:28.419Z,9.75
2019-05-26T10:38:08.203Z,9.05
2019-05-26T10:40:38.877Z,5.58
2019-05-26T10:43:09.489Z,7.85
2019-05-26T10:45:39.836Z,8.90
2019-05-26T10:48:10.254Z,6.37
2019-05-26T10:50:40.682Z,9.18
2019-05-26T10:53:11.106Z,6.42
2019-05-26T10:55:47.745Z,5.85
2019-05-26T10:58:18.589Z,7.58
2019-05-26T11:00:52.894Z,6.65
2019-05-26T11:03:25.770Z,9.00
2019-05-26T11:05:59.307Z,7.93
2019-05-26T11:08:31.150Z,7.90
2019-05-26T11:11:02.500Z,11.80
2019-05-26T11:13:33.448Z,9.07
2019-05-26T11:16:04.514Z,6.60
2019-05-26T11:18:42.926Z,6.50
2019-05-26T11:21:13.114Z,8.10
2019-05-26T11:23:44.124Z,5.83
2019-05-26T11:26:18.195Z,6.53
2019-05-26T11:28:48.962Z,5.93
2019-05-26T11:31:19.602Z,6.20
2019-05-26T11:33:50.330Z,8.47
2019-05-26T11:36:20.973Z,3.73
2019-05-26T11:38:51.971Z,5.53
2019-05-26T11:41:22.612Z,6.43
2019-05-26T11:43:53.258Z,6.87
2019-05-26T11:46:31.296Z,5.83
2019-05-26T11:49:02.875Z,7.33
2019-05-26T11:51:35.581Z,5.30
2019-05-26T11:54:06.165Z,6.13
2019-05-26T11:56:38.046Z,7.90
2019-05-26T11:59:08.666Z,5.17
2019-05-26T12:01:39.239Z,3.93
2019-05-26T12:04:10.136Z,6.50
2019-05-26T12:06:40.805Z,4.67
2019-05-26T12:09:11.621Z,5.83
2019-05-26T12:11:42.179Z,6.70
2019-05-26T12:14:12.826Z,4.30
2019-05-26T12:16:43.685Z,4.30
2019-05-26T12:19:14.374Z,4.07
2019-05-26T12:21:45.011Z,5.50
2019-05-26T12:24:16.488Z,4.80
2019-05-26T12:26:47.331Z,4.00
2019-05-26T12:29:19.146Z,4.00
2019-05-26T12:31:49.713Z,3.40
2019-05-26T12:34:20.362Z,3.73
2019-05-26T12:36:51.131Z,4.17
2019-05-26T12:39:22.817Z,4.53
2019-05-26T12:41:53.437Z,3.50
2019-05-26T12:44:24.147Z,3.87
2019-05-26T12:46:54.915Z,3.10
2019-05-26T12:49:27.724Z,3.50
2019-05-26T12:51:58.180Z,4.17
2019-05-26T12:54:29.043Z,3.10
2019-05-26T12:56:59.880Z,4.00
2019-05-26T12:59:30.445Z,2.87
2019-05-26T13:02:03.468Z,2.80
2019-05-26T13:04:36.774Z,4.27
2019-05-26T13:07:07.523Z,3.67
2019-05-26T13:09:39.224Z,2.50
2019-05-26T13:12:09.803Z,2.77
2019-05-26T13:14:41.354Z,4.93
2019-05-26T13:17:11.922Z,3.23
2019-05-26T13:19:42.788Z,4.70
2019-05-26T13:22:16.214Z,5.77
2019-05-26T13:24:46.842Z,4.10
2019-05-26T13:27:17.613Z,2.77
2019-05-26T13:29:48.349Z,4.77
2019-05-26T13:32:19.038Z,3.17
2019-05-26T13:34:49.631Z,3.20
2019-05-26T13:37:20.311Z,2.63
2019-05-26T13:39:50.855Z,4.00
2019-05-26T13:42:21.600Z,3.00
2019-05-26T13:44:52.253Z,3.80
2019-05-26T13:47:26.200Z,3.17
2019-05-26T13:49:56.244Z,4.77
2019-05-26T13:52:27.183Z,3.03
2019-05-26T13:54:57.995Z,3.23
2019-05-26T13:57:28.881Z,3.90
2019-05-26T13:59:59.618Z,3.27
2019-05-26T14:02:31.445Z,3.33
2019-05-26T14:05:02.053Z,5.93
2019-05-26T14:07:32.782Z,3.63
2019-05-26T14:10:03.612Z,3.10
2019-05-26T14:12:34.270Z,2.53
2019-05-26T14:15:05.245Z,5.43
2019-05-26T14:17:38.923Z,4.30
2019-05-26T14:20:11.925Z,5.23
2019-05-26T14:22:42.541Z,2.20
2019-05-26T14:25:15.582Z,2.17
2019-05-26T14:27:47.069Z,2.20
2019-05-26T14:30:17.687Z,2.73
2019-05-26T14:32:48.388Z,5.00
2019-05-26T14:35:19.210Z,4.03
2019-05-26T14:37:49.830Z,2.90
2019-05-26T14:40:20.952Z,3.87
2019-05-26T14:42:52.722Z,2.73
2019-05-26T14:45:23.410Z,2.90
2019-05-26T14:47:54.428Z,2.50
2019-05-26T14:50:25.636Z,3.27
2019-05-26T14:52:56.355Z,3.30
2019-05-26T14:55:27.214Z,2.00
2019-05-26T14:58:13.841Z,4.50
2019-05-26T15:00:31.387Z,2.90
2019-05-26T15:03:02.015Z,3.73
2019-05-26T15:05:32.929Z,4.10
2019-05-26T15:08:03.634Z,3.17
2019-05-26T15:10:34.431Z,4.10
2019-05-26T15:13:05.150Z,2.63
2019-05-26T15:15:35.821Z,3.43
2019-05-26T15:18:06.203Z,2.50
2019-05-26T15:20:40.581Z,3.22
2019-05-26T15:23:11.095Z,2.95
2019-05-26T15:25:41.513Z,2.45
2019-05-26T15:28:12.099Z,2.45
2019-05-26T15:30:43.672Z,2.65
2019-05-26T15:33:13.990Z,1.80
2019-05-26T15:35:45.195Z,2.90
2019-05-26T15:38:15.904Z,2.50
2019-05-26T15:40:46.420Z,2.20
2019-05-26T15:43:17.907Z,3.55
2019-05-26T15:45:48.573Z,3.22
2019-05-26T15:48:18.991Z,3.98
2019-05-26T15:50:49.256Z,2.20
2019-05-26T15:53:19.669Z,6.25
2019-05-26T15:55:50.085Z,3.87
2019-05-26T15:58:20.411Z,3.60
2019-05-26T16:00:50.834Z,2.50
2019-05-26T16:03:21.260Z,2.10
2019-05-26T16:05:51.666Z,2.77
2019-05-26T16:08:22.194Z,3.35
2019-05-26T16:10:53.960Z,5.65
2019-05-26T16:13:25.744Z,3.45
2019-05-26T16:15:57.546Z,2.95
2019-05-26T16:18:28.455Z,4.03
2019-05-26T16:21:03.017Z,2.50
2019-05-26T16:23:31.066Z,5.42
2019-05-26T16:26:01.534Z,2.40
2019-05-26T16:28:32.031Z,3.45
2019-05-26T16:31:12.276Z,2.47
2019-05-26T16:33:42.922Z,3.40
2019-05-26T16:36:13.380Z,4.33
2019-05-26T16:38:43.766Z,5.35
2019-05-26T16:41:14.428Z,2.92
2019-05-26T16:43:44.967Z,3.58
2019-05-26T16:46:16.329Z,2.50
2019-05-26T16:48:47.287Z,3.83
2019-05-26T16:51:17.886Z,3.52
2019-05-26T16:53:48.186Z,4.53
2019-05-26T16:56:18.810Z,2.65
2019-05-26T16:58:50.523Z,3.40
2019-05-26T17:01:20.951Z,4.72
2019-05-26T17:03:51.263Z,3.27
2019-05-26T17:06:24.506Z,4.37
2019-05-26T17:08:54.990Z,2.95
2019-05-26T17:11:29.235Z,2.40
2019-05-26T17:14:00.271Z,3.02
2019-05-26T17:16:30.895Z,2.15
2019-05-26T17:19:04.132Z,2.47
2019-05-26T17:21:37.760Z,4.08
2019-05-26T17:24:08.530Z,3.62
2019-05-26T17:26:39.576Z,2.98
2019-05-26T17:29:15.288Z,3.92
2019-05-26T17:31:49.087Z,4.95
2019-05-26T17:34:28.511Z,2.10
2019-05-26T17:36:59.109Z,2.33
2019-05-26T17:39:30.051Z,2.65
2019-05-26T17:42:00.964Z,3.62
2019-05-26T17:44:32.625Z,3.17
2019-05-26T17:47:03.396Z,2.60
2019-05-26T17:49:36.602Z,4.50
2019-05-26T17:52:07.430Z,2.92
2019-05-26T17:54:38.968Z,3.75
2019-05-26T17:57:11.012Z,7.22
2019-05-26T17:59:44.451Z,3.40
2019-05-26T18:02:15.260Z,3.17
2019-05-26T18:04:47.448Z,2.60
2019-05-26T18:07:21.352Z,3.75
2019-05-26T18:09:52.290Z,3.40
2019-05-26T18:12:27.086Z,2.75
2019-05-26T18:15:01.213Z,3.50
2019-05-26T18:17:46.512Z,4.55
2019-05-26T18:20:08.440Z,3.40
2019-05-26T18:22:44.322Z,3.40
2019-05-26T18:25:15.338Z,3.22
2019-05-26T18:27:47.865Z,4.53
2019-05-26T18:30:20.448Z,7.50
2019-05-26T18:32:59.908Z,2.80
2019-05-26T18:35:31.191Z,2.20
2019-05-26T18:38:02.213Z,4.17
2019-05-26T18:40:33.708Z,2.55
2019-05-26T18:43:05.159Z,7.33
2019-05-26T18:45:36.734Z,4.28
2019-05-26T18:48:10.089Z,3.22
2019-05-26T18:50:41.918Z,4.05
2019-05-26T18:53:13.223Z,4.50
2019-05-26T18:55:50.187Z,2.80
2019-05-26T18:58:24.183Z,3.12
2019-05-26T19:00:59.792Z,3.40
2019-05-26T19:03:31.436Z,2.50
2019-05-26T19:06:04.729Z,2.30
2019-05-26T19:08:36.232Z,2.62
2019-05-26T19:11:10.994Z,4.75
2019-05-26T19:13:46.915Z,1.60
2019-05-26T19:16:32.672Z,4.58
2019-05-26T19:19:04.051Z,3.70
2019-05-26T19:21:34.892Z,5.70
2019-05-26T19:24:06.425Z,3.52
2019-05-26T19:26:37.282Z,2.95
2019-05-26T19:29:10.353Z,2.75
2019-05-26T19:31:45.648Z,3.92
2019-05-26T19:34:23.662Z,5.33
2019-05-26T19:36:54.735Z,3.30
2019-05-26T19:39:27.795Z,3.30
2019-05-26T19:42:08.305Z,4.28
2019-05-26T19:44:42.723Z,4.30
2019-05-26T19:47:14.256Z,5.35
2019-05-26T19:49:49.062Z,4.08
2019-05-26T19:52:21.475Z,2.72
2019-05-26T19:54:56.803Z,4.25
2019-05-26T19:57:28.011Z,2.72
2019-05-26T20:00:01.039Z,2.72
2019-05-26T20:02:32.304Z,4.50
2019-05-26T20:05:03.757Z,4.00
2019-05-26T20:07:39.210Z,4.17
2019-05-26T20:10:14.482Z,6.30
2019-05-26T20:12:47.376Z,3.52
2019-05-26T20:15:19.186Z,5.10
2019-05-26T20:17:52.890Z,3.25
2019-05-26T20:20:31.427Z,3.47
2019-05-26T20:23:05.492Z,4.92
2019-05-26T20:25:38.720Z,5.65
2019-05-26T20:28:09.883Z,4.53
2019-05-26T20:30:45.330Z,3.33
2019-05-26T20:33:17.600Z,3.35
2019-05-26T20:35:51.454Z,3.05
2019-05-26T20:38:23.755Z,2.90
2019-05-26T20:40:54.273Z,3.17
2019-05-26T20:43:27.848Z,2.50
2019-05-26T20:46:03.004Z,3.42
2019-05-26T20:48:34.432Z,3.00
2019-05-26T20:51:05.763Z,6.42
2019-05-26T20:53:42.214Z,2.47
2019-05-26T20:56:14.967Z,3.85
2019-05-26T20:58:50.914Z,2.67
2019-05-26T21:01:22.016Z,2.70
2019-05-26T21:03:52.887Z,6.03
2019-05-26T21:06:23.492Z,2.65
2019-05-26T21:08:57.279Z,3.33
2019-05-26T21:11:29.800Z,2.15
2019-05-26T21:14:03.882Z,2.85
2019-05-26T21:16:34.712Z,3.45
2019-05-26T21:19:06.277Z,2.67
2019-05-26T21:21:40.083Z,2.85
2019-05-26T21:24:11.455Z,5.30
2019-05-26T21:26:45.333Z,3.83
2019-05-26T21:29:21.194Z,4.50
2019-05-26T21:31:52.161Z,4.00
2019-05-26T21:34:23.050Z,4.55
2019-05-26T21:36:57.243Z,4.17
2019-05-26T21:39:29.813Z,3.10
2019-05-26T21:42:01.213Z,3.40
2019-05-26T21:44:37.187Z,2.77
2019-05-26T21:47:10.676Z,3.35
2019-05-26T21:49:41.361Z,7.05
2019-05-26T21:52:17.463Z,2.80
2019-05-26T21:54:50.959Z,3.27
2019-05-26T21:57:21.630Z,3.60
2019-05-26T21:59:52.184Z,2.52
2019-05-26T22:02:23.113Z,3.60
2019-05-26T22:04:53.678Z,4.22
2019-05-26T22:07:24.201Z,3.47
2019-05-26T22:09:55.928Z,2.50
2019-05-26T22:12:26.631Z,3.10
2019-05-26T22:14:57.154Z,3.08
2019-05-26T22:17:30.839Z,4.30
2019-05-26T22:20:03.201Z,2.92
2019-05-26T22:22:33.839Z,4.45
2019-05-26T22:25:04.547Z,3.35
2019-05-26T22:27:34.984Z,4.10
2019-05-26T22:30:06.142Z,4.65
2019-05-26T22:32:36.739Z,3.47
2019-05-26T22:35:07.730Z,2.87
2019-05-26T22:37:38.116Z,3.40
2019-05-26T22:40:09.039Z,3.27
2019-05-26T22:42:39.704Z,3.95
2019-05-26T22:45:11.302Z,3.70
2019-05-26T22:47:41.910Z,3.40
2019-05-26T22:50:14.444Z,2.70
2019-05-26T22:52:45.090Z,3.40
2019-05-26T22:55:15.870Z,3.33
2019-05-26T22:57:50.091Z,4.55
2019-05-26T23:00:21.394Z,5.10
2019-05-26T23:02:52.065Z,5.03
2019-05-26T23:05:22.335Z,5.08
2019-05-26T23:07:52.896Z,4.40
2019-05-26T23:10:23.306Z,3.25
2019-05-26T23:12:53.959Z,2.92
2019-05-26T23:15:25.719Z,2.98
2019-05-26T23:17:58.215Z,2.90
2019-05-26T23:20:28.614Z,3.62
2019-05-26T23:22:58.920Z,3.87
2019-05-26T23:25:29.451Z,3.62
2019-05-26T23:28:04.188Z,3.47
2019-05-26T23:30:34.738Z,2.72
2019-05-26T23:33:07.087Z,2.80
2019-05-26T23:35:37.630Z,3.85
2019-05-26T23:38:08.139Z,4.20
2019-05-26T23:40:38.659Z,5.47
2019-05-26T23:43:09.128Z,2.95
2019-05-26T23:45:39.710Z,3.40
2019-05-26T23:48:10.189Z,3.50
2019-05-26T23:50:40.660Z,2.80
2019-05-26T23:53:10.921Z,3.85
2019-05-26T23:55:42.657Z,3.42
2019-05-26T23:58:13.160Z,3.25
